Time;durP1;ratioP1;P1;durP2;ratioP2;P2;SDS_P1;SDS_P2;PMS_P1;PMS_P2;Temp;Humidity;BMP_temperature;BMP_pressure;BME280_temperature;BME280_humidity;BME280_pressure;Samples;Min_cycle;Max_cycle;Signal;HPM_P1;HPM_P2
2023/12/03 00:02:19;;;;;;;46.70;21.90;;;;;;;-128.00;-1.00;-1.00;103063;1253;1004415;-78
2023/12/03 00:04:46;;;;;;;48.60;20.10;;;;;;;-128.00;-1.00;-1.00;103122;1253;1003632;-78
2023/12/03 00:07:12;;;;;;;46.60;21.20;;;;;;;-128.00;-1.00;-1.00;103060;1255;1005160;-79
2023/12/03 00:09:39;;;;;;;40.70;19.30;;;;;;;-128.00;-1.00;-1.00;103092;1255;1004748;-78
2023/12/03 00:12:06;;;;;;;47.80;22.30;;;;;;;-128.00;-1.00;-1.00;102987;1253;1004837;-79
2023/12/03 00:14:33;;;;;;;54.70;24.00;;;;;;;-128.00;-1.00;-1.00;103146;1253;1004520;-78
2023/12/03 00:17:00;;;;;;;46.30;21.70;;;;;;;-128.00;-1.00;-1.00;102798;1253;1004718;-78
2023/12/03 00:19:27;;;;;;;46.50;22.00;;;;;;;-128.00;-1.00;-1.00;103073;1253;1004239;-79
2023/12/03 00:21:54;;;;;;;59.20;22.30;;;;;;;-128.00;-1.00;-1.00;103126;1253;1004621;-78
2023/12/03 00:24:20;;;;;;;49.60;20.80;;;;;;;-128.00;-1.00;-1.00;103087;1253;1004070;-78
2023/12/03 00:26:47;;;;;;;50.50;22.50;;;;;;;-128.00;-1.00;-1.00;103061;1253;1004425;-78
2023/12/03 00:29:14;;;;;;;54.60;24.50;;;;;;;-128.00;-1.00;-1.00;102904;1253;1004622;-78
2023/12/03 00:31:41;;;;;;;54.00;23.80;;;;;;;-128.00;-1.00;-1.00;102973;1253;1004781;-80
2023/12/03 00:34:07;;;;;;;54.90;23.50;;;;;;;-128.00;-1.00;-1.00;103072;1256;1004992;-78
2023/12/03 00:36:34;;;;;;;49.30;23.20;;;;;;;-128.00;-1.00;-1.00;102964;1253;1003620;-78
2023/12/03 00:39:01;;;;;;;59.10;23.90;;;;;;;-128.00;-1.00;-1.00;103019;1253;1005309;-78
2023/12/03 00:41:27;;;;;;;46.80;22.20;;;;;;;-128.00;-1.00;-1.00;102951;1253;1004148;-79
2023/12/03 00:43:54;;;;;;;59.30;23.90;;;;;;;-128.00;-1.00;-1.00;103025;1253;1003662;-78
2023/12/03 00:46:21;;;;;;;88.70;32.80;;;;;;;-128.00;-1.00;-1.00;103043;1253;1004391;-78
2023/12/03 00:48:48;;;;;;;72.60;27.80;;;;;;;-128.00;-1.00;-1.00;103028;1253;1005201;-78
2023/12/03 00:51:14;;;;;;;59.60;27.80;;;;;;;-128.00;-1.00;-1.00;103078;1253;1004515;-78
2023/12/03 00:53:41;;;;;;;56.00;24.10;;;;;;;-128.00;-1.00;-1.00;103034;1253;1003935;-78
2023/12/03 00:56:09;;;;;;;50.90;24.10;;;;;;;-128.00;-1.00;-1.00;102937;1253;1005164;-78
2023/12/03 00:58:35;;;;;;;60.20;26.20;;;;;;;-128.00;-1.00;-1.00;103064;1253;1004217;-78
2023/12/03 01:01:02;;;;;;;67.10;28.30;;;;;;;-128.00;-1.00;-1.00;103024;1253;1004473;-79
2023/12/03 01:03:29;;;;;;;62.90;26.80;;;;;;;-128.00;-1.00;-1.00;103104;1253;1005280;-78
2023/12/03 01:05:56;;;;;;;66.50;29.80;;;;;;;-128.00;-1.00;-1.00;103099;1253;1004687;-80
2023/12/03 01:08:23;;;;;;;62.60;28.80;;;;;;;-128.00;-1.00;-1.00;103065;1253;1005192;-78
2023/12/03 01:10:49;;;;;;;62.90;30.90;;;;;;;-128.00;-1.00;-1.00;103021;1253;1004583;-78
2023/12/03 01:13:16;;;;;;;63.30;27.80;;;;;;;-128.00;-1.00;-1.00;103030;1253;1005209;-78
2023/12/03 01:15:43;;;;;;;65.00;28.70;;;;;;;-128.00;-1.00;-1.00;103086;1253;1003746;-78
2023/12/03 01:18:11;;;;;;;72.70;30.70;;;;;;;-128.00;-1.00;-1.00;102948;1253;1004125;-80
2023/12/03 01:20:38;;;;;;;67.50;31.00;;;;;;;-128.00;-1.00;-1.00;103048;1253;1004083;-78
2023/12/03 01:23:05;;;;;;;71.30;31.10;;;;;;;-128.00;-1.00;-1.00;103012;1253;1003758;-78
2023/12/03 01:25:31;;;;;;;51.70;24.30;;;;;;;-128.00;-1.00;-1.00;103059;1253;1004297;-78
2023/12/03 01:27:58;;;;;;;59.00;25.80;;;;;;;-128.00;-1.00;-1.00;103046;1253;1004557;-78
2023/12/03 01:30:24;;;;;;;63.90;28.30;;;;;;;-128.00;-1.00;-1.00;103068;1257;1004069;-79
2023/12/03 01:32:51;;;;;;;61.30;28.20;;;;;;;-128.00;-1.00;-1.00;103016;1253;1005230;-79
2023/12/03 01:35:18;;;;;;;65.20;31.10;;;;;;;-128.00;-1.00;-1.00;103091;1253;1005563;-77
2023/12/03 01:37:44;;;;;;;63.40;30.70;;;;;;;-128.00;-1.00;-1.00;103113;1254;1004776;-78
2023/12/03 01:40:11;;;;;;;62.70;27.40;;;;;;;-128.00;-1.00;-1.00;103092;1253;1003854;-78
2023/12/03 01:42:37;;;;;;;66.80;28.20;;;;;;;-128.00;-1.00;-1.00;103024;1253;1004271;-78
2023/12/03 01:45:05;;;;;;;63.90;26.90;;;;;;;-128.00;-1.00;-1.00;103052;1253;1005606;-78
2023/12/03 01:47:32;;;;;;;59.10;28.10;;;;;;;-128.00;-1.00;-1.00;102994;1253;1004504;-79
2023/12/03 01:50:04;;;;;;;53.20;25.90;;;;;;;-128.00;-1.00;-1.00;102776;1253;1005098;-79
2023/12/03 01:52:30;;;;;;;51.70;22.90;;;;;;;-128.00;-1.00;-1.00;102933;1253;1058318;-78
2023/12/03 01:54:57;;;;;;;53.20;25.00;;;;;;;-128.00;-1.00;-1.00;103061;1254;1003871;-78
2023/12/03 01:57:25;;;;;;;57.10;26.20;;;;;;;-128.00;-1.00;-1.00;103121;1253;1005397;-80
2023/12/03 01:59:52;;;;;;;54.90;26.70;;;;;;;-128.00;-1.00;-1.00;103120;1254;1004132;-78
2023/12/03 02:02:19;;;;;;;54.50;28.00;;;;;;;-128.00;-1.00;-1.00;103156;1253;1004785;-78
2023/12/03 02:04:45;;;;;;;47.60;25.40;;;;;;;-128.00;-1.00;-1.00;103258;1254;1003940;-80
2023/12/03 02:07:12;;;;;;;49.20;24.00;;;;;;;-128.00;-1.00;-1.00;103085;1254;1004255;-78
2023/12/03 02:09:39;;;;;;;50.70;24.00;;;;;;;-128.00;-1.00;-1.00;103191;1253;1005248;-77
2023/12/03 02:12:05;;;;;;;47.80;24.40;;;;;;;-128.00;-1.00;-1.00;103046;1253;1004151;-77
2023/12/03 02:14:33;;;;;;;52.80;23.60;;;;;;;-128.00;-1.00;-1.00;103218;1254;1003972;-79
2023/12/03 02:16:59;;;;;;;50.30;24.70;;;;;;;-128.00;-1.00;-1.00;103086;1254;1004394;-78
2023/12/03 02:19:27;;;;;;;42.90;22.70;;;;;;;-128.00;-1.00;-1.00;103076;1254;1004040;-78
2023/12/03 02:21:54;;;;;;;45.10;22.00;;;;;;;-128.00;-1.00;-1.00;103035;1259;1005114;-79
2023/12/03 02:24:20;;;;;;;52.50;23.80;;;;;;;-128.00;-1.00;-1.00;103022;1254;1004593;-79
2023/12/03 02:26:47;;;;;;;35.90;17.90;;;;;;;-128.00;-1.00;-1.00;103072;1254;1004098;-78
2023/12/03 02:29:14;;;;;;;47.20;21.70;;;;;;;-128.00;-1.00;-1.00;103139;1253;1005078;-78
2023/12/03 02:31:40;;;;;;;43.40;22.10;;;;;;;-128.00;-1.00;-1.00;103104;1254;1003795;-78
2023/12/03 02:34:09;;;;;;;42.90;22.40;;;;;;;-128.00;-1.00;-1.00;103116;1253;1004760;-77
2023/12/03 02:36:36;;;;;;;37.30;18.40;;;;;;;-128.00;-1.00;-1.00;103124;1259;1047757;-78
2023/12/03 02:39:02;;;;;;;38.80;19.70;;;;;;;-128.00;-1.00;-1.00;103042;1254;1004411;-78
2023/12/03 02:41:29;;;;;;;37.70;18.90;;;;;;;-128.00;-1.00;-1.00;103017;1254;1004418;-79
2023/12/03 02:43:56;;;;;;;42.70;21.70;;;;;;;-128.00;-1.00;-1.00;103093;1254;1004819;-78
2023/12/03 02:46:22;;;;;;;40.40;19.10;;;;;;;-128.00;-1.00;-1.00;103041;1253;1006455;-79
2023/12/03 02:48:49;;;;;;;42.40;18.50;;;;;;;-128.00;-1.00;-1.00;103134;1254;1005208;-78
2023/12/03 02:51:16;;;;;;;39.90;19.50;;;;;;;-128.00;-1.00;-1.00;102861;1254;1005404;-79
2023/12/03 02:53:46;;;;;;;33.60;17.40;;;;;;;-128.00;-1.00;-1.00;102912;1254;1004194;-79
2023/12/03 02:56:13;;;;;;;30.10;14.70;;;;;;;-128.00;-1.00;-1.00;102872;1254;1059694;-78
2023/12/03 02:58:40;;;;;;;30.10;14.60;;;;;;;-128.00;-1.00;-1.00;102967;1254;1004403;-77
2023/12/03 03:01:07;;;;;;;32.80;15.70;;;;;;;-128.00;-1.00;-1.00;102981;1254;1004691;-77
2023/12/03 03:03:34;;;;;;;33.70;16.20;;;;;;;-128.00;-1.00;-1.00;102988;1254;1004416;-78
2023/12/03 03:06:00;;;;;;;30.90;15.60;;;;;;;-128.00;-1.00;-1.00;103057;1254;1004045;-78
2023/12/03 03:08:27;;;;;;;29.90;14.30;;;;;;;-128.00;-1.00;-1.00;103586;1254;1005161;-78
2023/12/03 03:10:53;;;;;;;25.80;13.20;;;;;;;-128.00;-1.00;-1.00;104874;1254;1003864;-79
2023/12/03 03:13:20;;;;;;;35.30;15.10;;;;;;;-128.00;-1.00;-1.00;103542;1254;1004505;-78
2023/12/03 03:15:46;;;;;;;35.40;16.60;;;;;;;-128.00;-1.00;-1.00;105484;1254;1004999;-78
2023/12/03 03:18:13;;;;;;;29.00;15.80;;;;;;;-128.00;-1.00;-1.00;105470;1254;1004868;-78
2023/12/03 03:20:39;;;;;;;27.70;14.50;;;;;;;-128.00;-1.00;-1.00;103262;1254;1004450;-78
2023/12/03 03:23:06;;;;;;;28.50;14.60;;;;;;;-128.00;-1.00;-1.00;103090;1253;1004873;-79
2023/12/03 03:25:33;;;;;;;28.40;15.10;;;;;;;-128.00;-1.00;-1.00;103166;1253;1004035;-78
2023/12/03 03:27:59;;;;;;;29.80;13.80;;;;;;;-128.00;-1.00;-1.00;103163;1253;1003893;-78
2023/12/03 03:30:26;;;;;;;30.40;14.10;;;;;;;-128.00;-1.00;-1.00;103122;1253;1004277;-77
2023/12/03 03:32:53;;;;;;;28.00;14.00;;;;;;;-128.00;-1.00;-1.00;103105;1253;1004168;-79
2023/12/03 03:35:19;;;;;;;24.60;13.30;;;;;;;-128.00;-1.00;-1.00;103069;1257;1005621;-79
2023/12/03 03:37:46;;;;;;;30.20;14.00;;;;;;;-128.00;-1.00;-1.00;103083;1253;1004066;-79
2023/12/03 03:40:13;;;;;;;25.90;12.50;;;;;;;-128.00;-1.00;-1.00;102982;1253;1004393;-79
2023/12/03 03:42:40;;;;;;;26.50;13.20;;;;;;;-128.00;-1.00;-1.00;103083;1253;1004997;-78
2023/12/03 03:45:07;;;;;;;26.20;12.20;;;;;;;-128.00;-1.00;-1.00;103056;1253;1004866;-78
2023/12/03 03:47:36;;;;;;;22.50;11.10;;;;;;;-128.00;-1.00;-1.00;103010;1253;1005141;-78
2023/12/03 03:50:04;;;;;;;24.70;13.50;;;;;;;-128.00;-1.00;-1.00;102995;1253;1048070;-78
2023/12/03 03:52:31;;;;;;;19.80;11.10;;;;;;;-128.00;-1.00;-1.00;103084;1253;1004328;-78
2023/12/03 03:54:57;;;;;;;19.40;10.10;;;;;;;-128.00;-1.00;-1.00;103011;1253;1005379;-77
2023/12/03 03:57:24;;;;;;;19.90;10.50;;;;;;;-128.00;-1.00;-1.00;103021;1253;1004846;-79
2023/12/03 03:59:51;;;;;;;17.00;9.90;;;;;;;-128.00;-1.00;-1.00;103058;1253;1005348;-79
2023/12/03 04:02:17;;;;;;;20.60;9.80;;;;;;;-128.00;-1.00;-1.00;102999;1253;1007178;-78
2023/12/03 04:04:45;;;;;;;20.70;9.30;;;;;;;-128.00;-1.00;-1.00;103125;1253;1004193;-79
2023/12/03 04:07:11;;;;;;;16.90;8.90;;;;;;;-128.00;-1.00;-1.00;102898;1253;1005404;-78
2023/12/03 04:09:38;;;;;;;18.80;9.40;;;;;;;-128.00;-1.00;-1.00;103071;1255;1004464;-78
2023/12/03 04:12:05;;;;;;;18.50;9.20;;;;;;;-128.00;-1.00;-1.00;102980;1253;1004404;-79
2023/12/03 04:14:31;;;;;;;16.00;9.40;;;;;;;-128.00;-1.00;-1.00;103068;1253;1003960;-78
2023/12/03 04:16:58;;;;;;;15.70;8.50;;;;;;;-128.00;-1.00;-1.00;103096;1253;1004481;-78
2023/12/03 04:19:25;;;;;;;14.80;9.10;;;;;;;-128.00;-1.00;-1.00;105597;1255;1004565;-79
2023/12/03 04:21:52;;;;;;;14.10;7.90;;;;;;;-128.00;-1.00;-1.00;104858;1253;1004797;-78
2023/12/03 04:24:19;;;;;;;17.00;9.20;;;;;;;-128.00;-1.00;-1.00;103064;1256;1004328;-78
2023/12/03 04:26:45;;;;;;;18.40;9.10;;;;;;;-128.00;-1.00;-1.00;103048;1253;1004630;-79
2023/12/03 04:29:12;;;;;;;15.50;8.80;;;;;;;-128.00;-1.00;-1.00;104398;1253;1004377;-78
2023/12/03 04:31:38;;;;;;;16.40;8.80;;;;;;;-128.00;-1.00;-1.00;105586;1253;1004073;-79
2023/12/03 04:34:05;;;;;;;16.00;9.10;;;;;;;-128.00;-1.00;-1.00;105434;1253;1004510;-78
2023/12/03 04:36:32;;;;;;;17.40;9.80;;;;;;;-128.00;-1.00;-1.00;103345;1253;1005205;-79
2023/12/03 04:38:58;;;;;;;16.90;9.80;;;;;;;-128.00;-1.00;-1.00;103029;1253;1004323;-78
2023/12/03 04:41:36;;;;;;;26.40;11.20;;;;;;;-128.00;-1.00;-1.00;103071;1253;1004072;-79
2023/12/03 04:44:03;;;;;;;16.30;7.30;;;;;;;-128.00;-1.00;-1.00;103013;1253;1059391;-78
2023/12/03 04:46:29;;;;;;;13.70;7.60;;;;;;;-128.00;-1.00;-1.00;102982;1253;1006289;-79
2023/12/03 04:48:56;;;;;;;13.40;6.50;;;;;;;-128.00;-1.00;-1.00;103064;1253;1004804;-79
2023/12/03 04:51:22;;;;;;;13.30;7.10;;;;;;;-128.00;-1.00;-1.00;103045;1253;1005470;-78
2023/12/03 04:53:49;;;;;;;17.50;8.40;;;;;;;-128.00;-1.00;-1.00;104028;1253;1004508;-79
2023/12/03 04:56:16;;;;;;;14.50;8.00;;;;;;;-128.00;-1.00;-1.00;105598;1253;1004456;-79
2023/12/03 04:58:42;;;;;;;16.70;8.20;;;;;;;-128.00;-1.00;-1.00;105569;1253;1004140;-79
2023/12/03 05:01:09;;;;;;;14.00;7.10;;;;;;;-128.00;-1.00;-1.00;104156;1253;1004672;-79
2023/12/03 05:03:35;;;;;;;12.00;6.20;;;;;;;-128.00;-1.00;-1.00;103096;1253;1004237;-79
2023/12/03 05:06:02;;;;;;;14.00;7.70;;;;;;;-128.00;-1.00;-1.00;103011;1257;1004696;-78
2023/12/03 05:08:29;;;;;;;10.40;6.50;;;;;;;-128.00;-1.00;-1.00;103078;1253;1004777;-78
2023/12/03 05:10:56;;;;;;;11.20;6.60;;;;;;;-128.00;-1.00;-1.00;103103;1253;1004615;-79
2023/12/03 05:13:22;;;;;;;14.70;8.20;;;;;;;-128.00;-1.00;-1.00;102976;1253;1003592;-79
2023/12/03 05:15:49;;;;;;;13.20;6.90;;;;;;;-128.00;-1.00;-1.00;103068;1253;1004935;-78
2023/12/03 05:18:16;;;;;;;12.40;6.90;;;;;;;-128.00;-1.00;-1.00;103044;1253;1004324;-79
2023/12/03 05:20:42;;;;;;;21.10;10.30;;;;;;;-128.00;-1.00;-1.00;103090;1253;1004727;-78
2023/12/03 05:23:09;;;;;;;11.80;6.90;;;;;;;-128.00;-1.00;-1.00;103116;1253;1004936;-78
2023/12/03 05:25:36;;;;;;;14.60;7.30;;;;;;;-128.00;-1.00;-1.00;103049;1253;1004077;-78
2023/12/03 05:28:02;;;;;;;9.30;7.40;;;;;;;-128.00;-1.00;-1.00;102976;1253;1005275;-78
2023/12/03 05:30:29;;;;;;;15.70;7.30;;;;;;;-128.00;-1.00;-1.00;103081;1253;1004911;-77
2023/12/03 05:32:55;;;;;;;15.10;7.10;;;;;;;-128.00;-1.00;-1.00;103069;1253;1004317;-79
2023/12/03 05:35:22;;;;;;;12.80;6.40;;;;;;;-128.00;-1.00;-1.00;103044;1253;1006225;-78
2023/12/03 05:37:49;;;;;;;9.90;6.00;;;;;;;-128.00;-1.00;-1.00;103032;1253;1004424;-79
2023/12/03 05:40:15;;;;;;;13.70;6.90;;;;;;;-128.00;-1.00;-1.00;103006;1253;1003722;-78
2023/12/03 05:42:42;;;;;;;11.70;6.70;;;;;;;-128.00;-1.00;-1.00;103054;1253;1005211;-78
2023/12/03 05:45:09;;;;;;;13.90;7.80;;;;;;;-128.00;-1.00;-1.00;103012;1253;1004216;-79
2023/12/03 05:47:36;;;;;;;14.80;9.90;;;;;;;-128.00;-1.00;-1.00;102991;1253;1003849;-78
2023/12/03 05:50:04;;;;;;;10.70;6.20;;;;;;;-128.00;-1.00;-1.00;102961;1254;1003940;-79
2023/12/03 05:52:31;;;;;;;12.70;8.40;;;;;;;-128.00;-1.00;-1.00;103125;1253;1004858;-78
2023/12/03 05:54:57;;;;;;;11.80;6.60;;;;;;;-128.00;-1.00;-1.00;103025;1253;1004902;-79
2023/12/03 05:57:24;;;;;;;12.70;6.90;;;;;;;-128.00;-1.00;-1.00;103103;1257;1005211;-78
2023/12/03 05:59:52;;;;;;;11.50;5.70;;;;;;;-128.00;-1.00;-1.00;102974;1253;1004452;-78
2023/12/03 06:02:19;;;;;;;9.80;5.70;;;;;;;-128.00;-1.00;-1.00;103070;1253;1005162;-78
2023/12/03 06:04:46;;;;;;;15.20;8.10;;;;;;;-128.00;-1.00;-1.00;103122;1253;1004860;-78
2023/12/03 06:07:12;;;;;;;11.20;6.10;;;;;;;-128.00;-1.00;-1.00;103047;1253;1004477;-77
2023/12/03 06:09:39;;;;;;;14.50;9.40;;;;;;;-128.00;-1.00;-1.00;103082;1253;1004777;-78
2023/12/03 06:12:06;;;;;;;12.10;7.70;;;;;;;-128.00;-1.00;-1.00;102923;1253;1004709;-77
2023/12/03 06:14:33;;;;;;;13.10;7.90;;;;;;;-128.00;-1.00;-1.00;102979;1253;1004443;-78
2023/12/03 06:16:59;;;;;;;14.90;8.80;;;;;;;-128.00;-1.00;-1.00;102887;1253;1003638;-78
2023/12/03 06:19:26;;;;;;;13.80;7.80;;;;;;;-128.00;-1.00;-1.00;103041;1253;1004648;-79
2023/12/03 06:21:53;;;;;;;13.50;7.70;;;;;;;-128.00;-1.00;-1.00;103071;1253;1005084;-78
2023/12/03 06:24:19;;;;;;;11.20;6.80;;;;;;;-128.00;-1.00;-1.00;103102;1257;1004955;-78
2023/12/03 06:26:47;;;;;;;14.70;8.50;;;;;;;-128.00;-1.00;-1.00;103067;1253;1003955;-78
2023/12/03 06:29:14;;;;;;;10.80;5.80;;;;;;;-128.00;-1.00;-1.00;103130;1253;1004593;-78
2023/12/03 06:31:40;;;;;;;15.90;9.00;;;;;;;-128.00;-1.00;-1.00;102877;1253;1004840;-78
2023/12/03 06:34:07;;;;;;;15.90;8.70;;;;;;;-128.00;-1.00;-1.00;103096;1253;1004192;-78
2023/12/03 06:36:33;;;;;;;11.50;7.30;;;;;;;-128.00;-1.00;-1.00;102934;1253;1004944;-78
2023/12/03 06:39:00;;;;;;;12.50;7.10;;;;;;;-128.00;-1.00;-1.00;103025;1253;1004117;-79
2023/12/03 06:41:27;;;;;;;12.20;7.40;;;;;;;-128.00;-1.00;-1.00;103050;1253;1007663;-79
2023/12/03 06:43:53;;;;;;;14.70;7.20;;;;;;;-128.00;-1.00;-1.00;103081;1253;1004738;-78
2023/12/03 06:46:20;;;;;;;11.20;6.50;;;;;;;-128.00;-1.00;-1.00;102988;1257;1004883;-78
2023/12/03 06:48:46;;;;;;;25.10;11.70;;;;;;;-128.00;-1.00;-1.00;103086;1253;1004289;-79
2023/12/03 06:51:13;;;;;;;27.10;11.00;;;;;;;-128.00;-1.00;-1.00;103102;1255;1005356;-79
2023/12/03 06:53:40;;;;;;;21.10;12.60;;;;;;;-128.00;-1.00;-1.00;103086;1253;1004178;-78
2023/12/03 06:56:11;;;;;;;15.50;8.10;;;;;;;-128.00;-1.00;-1.00;103073;1253;1004460;-79
2023/12/03 06:58:37;;;;;;;14.20;8.60;;;;;;;-128.00;-1.00;-1.00;103184;1253;1060049;-78
2023/12/03 07:01:04;;;;;;;14.50;7.60;;;;;;;-128.00;-1.00;-1.00;103084;1253;1004698;-80
2023/12/03 07:03:31;;;;;;;18.50;9.30;;;;;;;-128.00;-1.00;-1.00;103087;1253;1004723;-78
2023/12/03 07:05:59;;;;;;;19.90;12.30;;;;;;;-128.00;-1.00;-1.00;103078;1253;1004365;-78
2023/12/03 07:08:26;;;;;;;20.10;11.50;;;;;;;-128.00;-1.00;-1.00;103098;1253;1004304;-78
2023/12/03 07:10:53;;;;;;;33.60;12.50;;;;;;;-128.00;-1.00;-1.00;103070;1253;1004203;-78
2023/12/03 07:13:19;;;;;;;34.00;16.00;;;;;;;-128.00;-1.00;-1.00;103104;1253;1004320;-78
2023/12/03 07:15:46;;;;;;;37.60;18.90;;;;;;;-128.00;-1.00;-1.00;103055;1253;1004708;-78
2023/12/03 07:18:12;;;;;;;15.20;8.30;;;;;;;-128.00;-1.00;-1.00;103090;1253;1004809;-78
2023/12/03 07:20:39;;;;;;;35.60;16.30;;;;;;;-128.00;-1.00;-1.00;103127;1253;1005327;-78
2023/12/03 07:23:06;;;;;;;35.30;16.50;;;;;;;-128.00;-1.00;-1.00;103041;1253;1004479;-78
2023/12/03 07:25:33;;;;;;;17.00;9.60;;;;;;;-128.00;-1.00;-1.00;103046;1253;1004800;-78
2023/12/03 07:27:59;;;;;;;18.30;9.50;;;;;;;-128.00;-1.00;-1.00;103024;1253;1005736;-78
2023/12/03 07:30:26;;;;;;;12.20;6.90;;;;;;;-128.00;-1.00;-1.00;103055;1253;1004076;-78
2023/12/03 07:32:52;;;;;;;13.20;7.50;;;;;;;-128.00;-1.00;-1.00;102965;1253;1004675;-78
2023/12/03 07:35:19;;;;;;;10.30;7.00;;;;;;;-128.00;-1.00;-1.00;103145;1253;1005278;-78
2023/12/03 07:37:46;;;;;;;18.20;9.70;;;;;;;-128.00;-1.00;-1.00;103072;1253;1004806;-78
2023/12/03 07:40:12;;;;;;;13.30;6.70;;;;;;;-128.00;-1.00;-1.00;103053;1253;1005053;-77
2023/12/03 07:42:39;;;;;;;12.90;5.70;;;;;;;-128.00;-1.00;-1.00;103176;1253;1004124;-78
2023/12/03 07:45:07;;;;;;;12.80;6.30;;;;;;;-128.00;-1.00;-1.00;103648;1253;1003467;-78
2023/12/03 07:47:34;;;;;;;19.30;7.30;;;;;;;-128.00;-1.00;-1.00;103028;1253;1004523;-78
2023/12/03 07:50:01;;;;;;;21.90;12.30;;;;;;;-128.00;-1.00;-1.00;103034;1253;1004656;-77
2023/12/03 07:52:28;;;;;;;16.20;9.40;;;;;;;-128.00;-1.00;-1.00;103015;1253;1004429;-78
2023/12/03 07:54:54;;;;;;;14.60;8.10;;;;;;;-128.00;-1.00;-1.00;102935;1253;1005135;-78
2023/12/03 07:57:21;;;;;;;10.90;6.80;;;;;;;-128.00;-1.00;-1.00;103045;1254;1005142;-78
2023/12/03 07:59:48;;;;;;;14.20;7.20;;;;;;;-128.00;-1.00;-1.00;103085;1253;1005474;-78
2023/12/03 08:02:14;;;;;;;13.80;6.90;;;;;;;-128.00;-1.00;-1.00;103057;1253;1003777;-78
2023/12/03 08:04:41;;;;;;;34.80;16.00;;;;;;;-128.00;-1.00;-1.00;103112;1253;1004921;-78
2023/12/03 08:07:07;;;;;;;40.20;18.30;;;;;;;-128.00;-1.00;-1.00;103063;1253;1004556;-78
2023/12/03 08:09:34;;;;;;;41.00;19.70;;;;;;;-128.00;-1.00;-1.00;103036;1253;1004210;-78
2023/12/03 08:12:01;;;;;;;30.20;15.70;;;;;;;-128.00;-1.00;-1.00;103083;1253;1005186;-78
2023/12/03 08:14:27;;;;;;;25.60;14.60;;;;;;;-128.00;-1.00;-1.00;102964;1253;1004410;-78
2023/12/03 08:16:54;;;;;;;35.90;16.80;;;;;;;-128.00;-1.00;-1.00;103041;1253;1004056;-78
2023/12/03 08:19:20;;;;;;;22.20;12.20;;;;;;;-128.00;-1.00;-1.00;103055;1254;1004072;-78
2023/12/03 08:21:47;;;;;;;21.90;12.00;;;;;;;-128.00;-1.00;-1.00;103138;1253;1005333;-78
2023/12/03 08:24:14;;;;;;;20.70;11.50;;;;;;;-128.00;-1.00;-1.00;103120;1253;1004709;-78
2023/12/03 08:26:40;;;;;;;20.20;10.80;;;;;;;-128.00;-1.00;-1.00;103083;1253;1005219;-78
2023/12/03 08:29:07;;;;;;;19.50;10.00;;;;;;;-128.00;-1.00;-1.00;103090;1254;1004396;-78
2023/12/03 08:31:34;;;;;;;16.60;8.00;;;;;;;-128.00;-1.00;-1.00;102919;1253;1004924;-78
2023/12/03 08:34:01;;;;;;;15.90;9.10;;;;;;;-128.00;-1.00;-1.00;104232;1253;1003637;-78
2023/12/03 08:36:31;;;;;;;17.00;8.40;;;;;;;-128.00;-1.00;-1.00;104411;1253;1004593;-78
2023/12/03 08:38:57;;;;;;;25.20;12.40;;;;;;;-128.00;-1.00;-1.00;104253;1253;1059287;-78
2023/12/03 08:41:24;;;;;;;32.40;17.60;;;;;;;-128.00;-1.00;-1.00;105657;1253;1004008;-78
2023/12/03 08:43:51;;;;;;;27.50;14.30;;;;;;;-128.00;-1.00;-1.00;105611;1253;1004650;-78
2023/12/03 08:46:20;;;;;;;25.30;11.60;;;;;;;-128.00;-1.00;-1.00;105650;1253;1004157;-79
2023/12/03 08:48:46;;;;;;;34.30;18.00;;;;;;;-128.00;-1.00;-1.00;105403;1253;1003757;-78
2023/12/03 08:51:13;;;;;;;34.50;18.30;;;;;;;-128.00;-1.00;-1.00;105615;1253;1004395;-78
2023/12/03 08:53:41;;;;;;;16.00;9.90;;;;;;;-128.00;-1.00;-1.00;105613;1253;1003529;-79
2023/12/03 08:56:12;;;;;;;28.80;14.50;;;;;;;-128.00;-1.00;-1.00;105416;1253;1003907;-79
2023/12/03 08:58:39;;;;;;;31.70;17.00;;;;;;;-128.00;-1.00;-1.00;105648;1253;1061910;-79
2023/12/03 09:01:07;;;;;;;36.70;19.70;;;;;;;-128.00;-1.00;-1.00;105630;1253;1005058;-79
2023/12/03 09:03:37;;;;;;;43.80;21.70;;;;;;;-128.00;-1.00;-1.00;105405;1253;1004450;-79
2023/12/03 09:06:04;;;;;;;32.00;17.00;;;;;;;-128.00;-1.00;-1.00;105599;1253;1046541;-79
2023/12/03 09:08:31;;;;;;;21.40;12.70;;;;;;;-128.00;-1.00;-1.00;105635;1253;1003298;-79
2023/12/03 09:10:58;;;;;;;17.20;10.20;;;;;;;-128.00;-1.00;-1.00;105643;1253;1004971;-78
2023/12/03 09:13:25;;;;;;;49.10;24.60;;;;;;;-128.00;-1.00;-1.00;105381;1253;1004707;-78
2023/12/03 09:15:51;;;;;;;41.70;18.60;;;;;;;-128.00;-1.00;-1.00;105631;1253;1003749;-78
2023/12/03 09:18:18;;;;;;;35.70;18.30;;;;;;;-128.00;-1.00;-1.00;105519;1253;1004115;-78
2023/12/03 09:20:45;;;;;;;35.90;19.40;;;;;;;-128.00;-1.00;-1.00;103101;1253;1003955;-78
2023/12/03 09:23:11;;;;;;;27.90;16.60;;;;;;;-128.00;-1.00;-1.00;103097;1253;1006188;-78
2023/12/03 09:25:38;;;;;;;21.40;12.30;;;;;;;-128.00;-1.00;-1.00;102953;1260;1005046;-78
2023/12/03 09:28:05;;;;;;;14.90;9.50;;;;;;;-128.00;-1.00;-1.00;103093;1258;1004103;-79
2023/12/03 09:30:31;;;;;;;19.40;10.80;;;;;;;-128.00;-1.00;-1.00;103119;1254;1005369;-78
2023/12/03 09:32:58;;;;;;;14.00;8.30;;;;;;;-128.00;-1.00;-1.00;103131;1254;1004669;-78
2023/12/03 09:35:29;;;;;;;16.70;8.10;;;;;;;-128.00;-1.00;-1.00;103124;1253;1003899;-78
2023/12/03 09:37:56;;;;;;;15.00;7.60;;;;;;;-128.00;-1.00;-1.00;103102;1253;1058011;-79
2023/12/03 09:40:23;;;;;;;16.00;8.90;;;;;;;-128.00;-1.00;-1.00;103036;1253;1004998;-78
2023/12/03 09:42:50;;;;;;;17.00;12.50;;;;;;;-128.00;-1.00;-1.00;102920;1253;1005128;-78
2023/12/03 09:45:19;;;;;;;19.20;11.40;;;;;;;-128.00;-1.00;-1.00;102946;1253;1004643;-79
2023/12/03 09:47:49;;;;;;;17.60;10.90;;;;;;;-128.00;-1.00;-1.00;103064;1253;1064191;-78
2023/12/03 09:50:15;;;;;;;20.70;11.10;;;;;;;-128.00;-1.00;-1.00;105446;1253;1060226;-78
2023/12/03 09:52:42;;;;;;;18.90;11.50;;;;;;;-128.00;-1.00;-1.00;105378;1253;1004163;-78
2023/12/03 09:55:09;;;;;;;20.30;10.50;;;;;;;-128.00;-1.00;-1.00;105597;1253;1004044;-78
2023/12/03 09:57:36;;;;;;;39.20;18.00;;;;;;;-128.00;-1.00;-1.00;103697;1253;1003871;-79
2023/12/03 10:00:06;;;;;;;38.30;17.10;;;;;;;-128.00;-1.00;-1.00;102902;1253;1005105;-79
2023/12/03 10:02:33;;;;;;;10.50;6.20;;;;;;;-128.00;-1.00;-1.00;102923;1253;1057666;-79
2023/12/03 10:05:00;;;;;;;9.50;5.10;;;;;;;-128.00;-1.00;-1.00;102983;1253;1006540;-79
2023/12/03 10:07:28;;;;;;;49.10;20.00;;;;;;;-128.00;-1.00;-1.00;103108;1253;1003838;-79
2023/12/03 10:09:59;;;;;;;73.90;29.90;;;;;;;-128.00;-1.00;-1.00;103088;1253;1004643;-79
2023/12/03 10:12:47;;;;;;;31.70;16.00;;;;;;;-128.00;-1.00;-1.00;105614;1253;1061746;-79
2023/12/03 10:15:13;;;;;;;18.10;11.60;;;;;;;-128.00;-1.00;-1.00;105451;1253;1058176;-79
2023/12/03 10:17:40;;;;;;;42.70;19.20;;;;;;;-128.00;-1.00;-1.00;105386;1253;1004144;-79
2023/12/03 10:20:28;;;;;;;41.10;19.20;;;;;;;-128.00;-1.00;-1.00;105387;1253;1005032;-79
2023/12/03 10:22:57;;;;;;;57.80;25.70;;;;;;;-128.00;-1.00;-1.00;103128;1257;1047639;-79
2023/12/03 10:25:30;;;;;;;;;;;;;;;-128.00;-1.00;-1.00;103092;1253;1062617;-79
2023/12/03 10:27:58;;;;;;;48.00;21.90;;;;;;;-128.00;-1.00;-1.00;103072;1254;1057535;-79
2023/12/03 10:30:25;;;;;;;54.30;25.40;;;;;;;-128.00;-1.00;-1.00;103037;1254;1004095;-79
2023/12/03 10:32:51;;;;;;;53.10;25.50;;;;;;;-128.00;-1.00;-1.00;102953;1253;1004420;-79
2023/12/03 10:35:20;;;;;;;27.00;15.10;;;;;;;-128.00;-1.00;-1.00;103127;1254;1004634;-79
2023/12/03 10:37:47;;;;;;;49.30;25.40;;;;;;;-128.00;-1.00;-1.00;105603;1253;1062239;-79
2023/12/03 10:40:14;;;;;;;40.10;21.00;;;;;;;-128.00;-1.00;-1.00;105616;1253;1004974;-79
2023/12/03 10:42:41;;;;;;;27.40;13.30;;;;;;;-128.00;-1.00;-1.00;105414;1253;1005031;-79
2023/12/03 10:45:11;;;;;;;13.60;7.10;;;;;;;-128.00;-1.00;-1.00;105621;1253;1005074;-79
2023/12/03 10:47:38;;;;;;;35.30;23.60;;;;;;;-128.00;-1.00;-1.00;105633;1254;1047823;-79
2023/12/03 10:50:06;;;;;;;48.30;20.60;;;;;;;-128.00;-1.00;-1.00;103581;1254;1004689;-79
2023/12/03 10:52:35;;;;;;;27.90;12.40;;;;;;;-128.00;-1.00;-1.00;103093;1256;1004741;-79
2023/12/03 10:55:02;;;;;;;35.60;15.20;;;;;;;-128.00;-1.00;-1.00;103093;1255;1059514;-79
2023/12/03 10:57:30;;;;;;;21.80;11.30;;;;;;;-128.00;-1.00;-1.00;102972;1260;1004765;-79
2023/12/03 11:00:00;;;;;;;26.60;13.90;;;;;;;-128.00;-1.00;-1.00;103044;1253;1004889;-79
2023/12/03 11:02:29;;;;;;;44.20;18.30;;;;;;;-128.00;-1.00;-1.00;104324;1254;1062066;-79
2023/12/03 11:05:00;;;;;;;83.90;31.30;;;;;;;-128.00;-1.00;-1.00;102950;1258;1059323;-79